Time;durP1;ratioP1;P1;durP2;ratioP2;P2;SDS_P1;SDS_P2;PMS_P1;PMS_P2;Temp;Humidity;BMP_temperature;BMP_pressure;BME280_temperature;BME280_humidity;BME280_pressure;Samples;Min_cycle;Max_cycle;Signal;HPM_P1;HPM_P2
2023/01/18 00:00:14;;;;;;;;;;;-2.10;99.90;;;;;;5000655;28;19947;-91
2023/01/18 00:02:57;;;;;;;;;;;-2.20;99.90;;;;;;5000125;28;19926;-91
2023/01/18 00:08:39;;;;;;;;;;;;;;;;;;;;;
2023/01/18 00:11:14;;;;;;;;;;;-2.20;99.90;;;;;;5000490;28;20346;-92
2023/01/18 00:13:54;;;;;;;;;;;-2.20;99.90;;;;;;4984524;28;19932;-91
2023/01/18 00:16:25;;;;;;;;;;;1.20;99.90;;;;;;4983519;28;20108;-92
2023/01/18 00:19:13;;;;;;;;;;;;;;;;;;;;;
2023/01/18 00:24:42;;;;;;;;;;;-2.20;99.90;;;;;;5016371;28;19926;-92
2023/01/18 00:27:17;;;;;;;;;;;-2.20;99.90;;;;;;4984124;28;20235;-92
2023/01/18 00:29:48;;;;;;;;;;;-2.20;99.90;;;;;;4999336;28;19930;-92
2023/01/18 00:32:23;;;;;;;;;;;-2.20;99.90;;;;;;4999423;28;20046;-92
2023/01/18 00:35:02;;;;;;;;;;;-2.10;99.90;;;;;;4999973;28;20016;-92
2023/01/18 00:37:55;;;;;;;;;;;-2.20;99.90;;;;;;4999291;28;19929;-92
2023/01/18 00:40:48;;;;;;;;;;;-2.20;99.90;;;;;;4982530;28;20016;-91
2023/01/18 00:43:39;;;;;;;;;;;-2.20;99.90;;;;;;4999208;28;19926;-92
2023/01/18 00:46:14;;;;;;;;;;;-2.20;99.90;;;;;;4983169;28;19936;-92
2023/01/18 00:48:57;;;;;;;;;;;-2.10;99.90;;;;;;4998877;28;20439;-91
2023/01/18 00:51:29;;;;;;;;;;;-2.20;99.90;;;;;;4999699;28;19984;-92
2023/01/18 00:56:55;;;;;;;;;;;-2.20;99.90;;;;;;4962268;28;19926;-92
2023/01/18 00:59:28;;;;;;;;;;;-2.30;99.90;;;;;;4976078;28;19973;-92
2023/01/18 01:07:50;;;;;;;;;;;-2.30;99.90;;;;;;4976107;28;19926;-92
2023/01/18 01:10:28;;;;;;;;;;;-2.40;99.90;;;;;;4975852;28;20271;-91
2023/01/18 01:27:50;;;;;;;;;;;-2.40;99.90;;;;;;5000333;28;19933;-91
2023/01/18 01:30:35;;;;;;;;;;;-2.70;99.90;;;;;;4999978;28;19938;-91
2023/01/18 01:33:06;;;;;;;;;;;-2.50;99.90;;;;;;5001509;28;19914;-91
2023/01/18 01:35:40;;;;;;;;;;;-2.50;99.90;;;;;;4999728;28;19933;-90
2023/01/18 01:38:37;;;;;;;;;;;-2.50;99.90;;;;;;4996457;28;19926;-91
2023/01/18 01:41:40;;;;;;;;;;;-2.50;99.90;;;;;;4975373;28;20032;-91
2023/01/18 01:44:38;;;;;;;;;;;;;;;;;;;;;
2023/01/18 01:47:20;;;;;;;;;;;;;;;;;;;;;
2023/01/18 01:49:53;;;;;;;;;;;-2.50;99.90;;;;;;4975416;28;19932;-91
2023/01/18 01:52:23;;;;;;;;;;;-2.60;99.90;;;;;;4981535;28;19932;-91
2023/01/18 01:54:56;;;;;;;;;;;-2.50;99.90;;;;;;4993695;28;19925;-91
2023/01/18 01:57:44;;;;;;;;;;;-2.50;99.90;;;;;;4994986;28;20429;-91
2023/01/18 02:00:14;;;;;;;;;;;-2.60;99.90;;;;;;4994375;28;19926;-91
2023/01/18 02:03:16;;;;;;;;;;;-2.60;99.90;;;;;;4995118;28;19926;-92
2023/01/18 02:05:44;;;;;;;;;;;-2.50;99.90;;;;;;4993262;28;19926;-91
2023/01/18 02:08:37;;;;;;;;;;;-2.50;99.90;;;;;;4994101;28;19932;-92
2023/01/18 02:11:08;;;;;;;;;;;-2.50;99.90;;;;;;4994038;28;19977;-92
2023/01/18 02:13:44;;;;;;;;;;;-2.50;99.90;;;;;;4993776;28;20337;-91
2023/01/18 02:16:35;;;;;;;;;;;-2.60;99.90;;;;;;4993926;28;19926;-91
2023/01/18 02:19:34;;;;;;;;;;;-2.50;99.90;;;;;;4994459;28;19933;-91
2023/01/18 02:22:33;;;;;;;;;;;;;;;;;;;;;
2023/01/18 02:28:24;;;;;;;;;;;;;;;;;;;;;
2023/01/18 02:30:57;;;;;;;;;;;-2.60;99.90;;;;;;4993052;28;19926;-91
2023/01/18 02:33:51;;;;;;;;;;;-2.70;99.90;;;;;;4994552;28;19948;-91
2023/01/18 02:39:38;;;;;;;;;;;-2.70;99.90;;;;;;4994144;28;19956;-91
2023/01/18 02:48:09;;;;;;;;;;;-2.70;99.90;;;;;;4995101;28;19926;-91
2023/01/18 02:50:51;;;;;;;;;;;-2.70;99.90;;;;;;4994787;28;19984;-91
2023/01/18 02:53:30;;;;;;;;;;;;;;;;;;;;;
2023/01/18 02:56:32;;;;;;;;;;;-2.70;99.90;;;;;;5009489;28;19933;-92
2023/01/18 02:59:03;;;;;;;;;;;-2.70;99.90;;;;;;4977971;28;20008;-91
2023/01/18 03:04:47;;;;;;;;;;;-2.70;99.90;;;;;;4991079;28;19926;-91
2023/01/18 03:07:41;;;;;;;;;;;-2.70;99.90;;;;;;4997888;28;19926;-91
2023/01/18 03:10:35;;;;;;;;;;;-2.80;99.90;;;;;;4997630;28;19988;-91
2023/01/18 03:13:29;;;;;;;;;;;-2.80;99.90;;;;;;4996420;28;19925;-91
2023/01/18 03:22:13;;;;;;;;;;;-2.80;99.90;;;;;;4996830;28;19973;-91
2023/01/18 03:25:07;;;;;;;;;;;-2.80;99.90;;;;;;4997497;28;20013;-92
2023/01/18 03:34:01;;;;;;;;;;;;;;;;;;;;;
2023/01/18 03:39:34;;;;;;;;;;;-2.80;99.90;;;;;;4989704;28;20039;-92
2023/01/18 03:42:22;;;;;;;;;;;;;;;;;;;;;
2023/01/18 03:45:23;;;;;;;;;;;;;;;;;;;;;
2023/01/18 03:48:07;;;;;;;;;;;;;;;;;;;;;
2023/01/18 03:51:10;;;;;;;;;;;;;;;;;;;;;
2023/01/18 03:53:39;;;;;;;;;;;-2.90;99.90;;;;;;4996292;28;19944;-91
2023/01/18 03:56:13;;;;;;;;;;;-2.90;99.90;;;;;;4980222;28;19956;-93
2023/01/18 03:59:10;;;;;;;;;;;-2.90;99.90;;;;;;4980688;28;19976;-91
2023/01/18 04:02:07;;;;;;;;;;;-3.00;99.90;;;;;;4997379;28;19926;-91
2023/01/18 04:04:42;;;;;;;;;;;-3.00;99.90;;;;;;4994760;28;19933;-91
2023/01/18 04:07:10;;;;;;;;;;;-3.00;99.90;;;;;;4996665;28;19944;-91
2023/01/18 04:09:41;;;;;;;;;;;-3.00;99.90;;;;;;4996242;28;19932;-91
2023/01/18 04:12:11;;;;;;;;;;;-3.00;99.90;;;;;;4980179;28;20251;-91
2023/01/18 04:14:45;;;;;;;;;;;-3.00;99.90;;;;;;4996196;28;19926;-90
2023/01/18 04:17:29;;;;;;;;;;;;;;;;;;;;;
2023/01/18 04:20:01;;;;;;;;;;;-3.00;99.90;;;;;;4995958;28;19926;-91
2023/01/18 04:23:02;;;;;;;;;;;;;;;;;;;;;
2023/01/18 04:25:48;;;;;;;;;;;-3.00;99.90;;;;;;4996253;28;19926;-91
2023/01/18 04:28:42;;;;;;;;;;;-3.00;99.90;;;;;;4980045;28;20358;-91
2023/01/18 04:31:29;;;;;;;;;;;;;;;;;;;;;
2023/01/18 04:34:29;;;;;;;;;;;-3.00;99.90;;;;;;4995331;28;19926;-91
2023/01/18 04:36:57;;;;;;;;;;;-3.00;99.90;;;;;;4996514;28;19930;-91
2023/01/18 04:39:35;;;;;;;;;;;-3.00;99.90;;;;;;4995979;28;19930;-91
2023/01/18 04:42:53;;;;;;;;;;;-3.00;99.90;;;;;;4996460;28;19926;-91
2023/01/18 04:45:18;;;;;;;;;;;-3.00;99.90;;;;;;4985310;28;19997;-91
2023/01/18 04:47:51;;;;;;;;;;;-3.00;99.90;;;;;;4980113;28;19926;-91
2023/01/18 04:50:29;;;;;;;;;;;-3.10;99.90;;;;;;4979579;28;19926;-91
2023/01/18 04:53:12;;;;;;;;;;;-3.10;99.90;;;;;;4980102;28;19964;-92
2023/01/18 04:55:40;;;;;;;;;;;-3.10;99.90;;;;;;4979950;28;19964;-92
2023/01/18 04:58:11;;;;;;;;;;;-3.10;99.90;;;;;;4979795;28;19980;-92
2023/01/18 05:03:46;;;;;;;;;;;-3.10;99.90;;;;;;4988095;28;20377;-91
2023/01/18 05:06:23;;;;;;;;;;;-3.00;99.90;;;;;;4995953;28;19933;-91
2023/01/18 05:08:56;;;;;;;;;;;-3.00;99.90;;;;;;4994820;28;19933;-91
2023/01/18 05:11:31;;;;;;;;;;;-3.00;99.90;;;;;;4995943;28;20339;-91
2023/01/18 05:14:20;;;;;;;;;;;-3.00;99.90;;;;;;4994951;28;20005;-91
2023/01/18 05:16:55;;;;;;;;;;;-3.00;99.90;;;;;;4994476;28;19937;-92
2023/01/18 05:19:31;;;;;;;;;;;-3.00;99.90;;;;;;4996409;28;20373;-91
2023/01/18 05:22:01;;;;;;;;;;;-3.00;99.90;;;;;;4998750;28;19926;-91
2023/01/18 05:24:35;;;;;;;;;;;-3.00;99.90;;;;;;5000348;28;19925;-90
2023/01/18 05:27:12;;;;;;;;;;;-3.00;99.90;;;;;;4995004;28;20440;-91
2023/01/18 05:30:03;;;;;;;;;;;-3.00;99.90;;;;;;4995087;28;20083;-91
2023/01/18 05:35:28;;;;;;;;;;;-3.00;99.90;;;;;;4995059;28;19933;-91
2023/01/18 05:38:14;;;;;;;;;;;;;;;;;;;;;
2023/01/18 05:41:03;;;;;;;;;;;-3.00;99.90;;;;;;5006606;28;19996;-91
2023/01/18 05:43:34;;;;;;;;;;;-3.00;99.90;;;;;;4993889;28;20440;-92
2023/01/18 05:46:04;;;;;;;;;;;-3.00;99.90;;;;;;4995232;28;19926;-91
2023/01/18 05:48:40;;;;;;;;;;;-3.00;99.90;;;;;;4993738;28;19933;-92
2023/01/18 05:51:28;;;;;;;;;;;-3.00;99.90;;;;;;4995308;28;19926;-91
2023/01/18 05:54:02;;;;;;;;;;;-3.00;99.90;;;;;;4991908;28;19932;-91
2023/01/18 05:56:56;;;;;;;;;;;-3.00;99.90;;;;;;4980176;28;20366;-91
2023/01/18 06:02:42;;;;;;;;;;;-3.00;99.90;;;;;;4990509;28;19926;-92
2023/01/18 06:05:32;;;;;;;;;;;;;;;;;;;;;
2023/01/18 06:08:18;;;;;;;;;;;-3.00;99.90;;;;;;4994760;28;20261;-91
2023/01/18 06:14:06;;;;;;;;;;;-3.00;99.90;;;;;;4989209;28;19926;-91
2023/01/18 06:16:39;;;;;;;;;;;-3.00;99.90;;;;;;5012912;28;19926;-92
2023/01/18 06:19:45;;;;;;;;;;;-3.00;99.90;;;;;;5018367;28;19913;-92
2023/01/18 06:22:14;;;;;;;;;;;-3.00;99.90;;;;;;5018445;28;19910;-91
2023/01/18 06:24:45;;;;;;;;;;;-3.00;99.90;;;;;;5017867;28;19950;-91
2023/01/18 06:27:21;;;;;;;;;;;-3.00;99.90;;;;;;5008744;28;19926;-91
2023/01/18 06:35:37;;;;;;;;;;;-3.10;99.90;;;;;;5008610;28;19929;-91
2023/01/18 06:38:37;;;;;;;;;;;-3.00;99.90;;;;;;4994424;28;20025;-91
2023/01/18 06:41:16;;;;;;;;;;;;;;;;;;;;;
2023/01/18 06:43:59;;;;;;;;;;;-3.00;99.90;;;;;;4998165;28;19926;-92
2023/01/18 06:46:38;;;;;;;;;;;-3.00;99.90;;;;;;5012427;28;19932;-91
2023/01/18 06:49:13;;;;;;;;;;;-3.00;99.90;;;;;;4997498;28;19933;-91
2023/01/18 06:54:40;;;;;;;;;;;;;;;;;;;;;
2023/01/18 07:07:47;;;;;;;;;;;-3.00;99.90;;;;;;4920264;29;20406;-94
2023/01/18 07:11:34;;;;;;;;;;;-2.90;99.90;;;;;;4897131;29;19927;-95
2023/01/18 07:13:49;;;;;;;;;;;;;;;;;;;;;
2023/01/18 07:16:31;;;;;;;;;;;-3.00;99.90;;;;;;4904211;29;20328;-94
2023/01/18 07:19:39;;;;;;;;;;;-2.90;99.90;;;;;;4957554;28;19926;-94
2023/01/18 07:22:19;;;;;;;;;;;-3.00;99.90;;;;;;4957951;28;20617;-90
2023/01/18 07:24:47;;;;;;;;;;;-2.90;99.90;;;;;;4980921;28;20297;-91
2023/01/18 07:27:22;;;;;;;;;;;-2.90;99.90;;;;;;4995985;28;19925;-90
2023/01/18 07:30:00;;;;;;;;;;;;;;;;;;;;;
2023/01/18 07:35:47;;;;;;;;;;;-2.90;99.90;;;;;;5002097;28;19992;-88
2023/01/18 07:38:21;;;;;;;;;;;-2.90;99.90;;;;;;4996391;28;19949;-89
2023/01/18 07:40:55;;;;;;;;;;;-2.90;99.90;;;;;;4996317;28;19926;-88
2023/01/18 07:43:40;;;;;;;;;;;-2.90;99.90;;;;;;4996734;28;19941;-89
2023/01/18 07:46:14;;;;;;;;;;;-2.90;99.90;;;;;;4996629;28;20281;-90
2023/01/18 07:49:04;;;;;;;;;;;-2.90;99.90;;;;;;4996549;28;19932;-89
2023/01/18 07:51:33;;;;;;;;;;;-2.90;99.90;;;;;;4991920;28;19926;-91
2023/01/18 07:54:07;;;;;;;;;;;-2.90;99.90;;;;;;4995381;28;19926;-88
2023/01/18 07:56:40;;;;;;;;;;;-2.90;99.90;;;;;;4996081;28;20287;-88
2023/01/18 08:02:13;;;;;;;;;;;-2.90;99.90;;;;;;4996073;28;19926;-88
2023/01/18 08:04:53;;;;;;;;;;;-2.90;99.90;;;;;;4980133;28;19933;-88
2023/01/18 08:07:22;;;;;;;;;;;-2.80;99.90;;;;;;4995751;28;20398;-89
2023/01/18 08:12:52;;;;;;;;;;;-2.80;99.90;;;;;;4990455;28;19926;-89
2023/01/18 08:15:25;;;;;;;;;;;-2.80;99.90;;;;;;4995384;28;19969;-88
2023/01/18 08:17:54;;;;;;;;;;;-2.80;99.90;;;;;;4995855;28;20293;-90
2023/01/18 08:20:31;;;;;;;;;;;-2.80;99.90;;;;;;4996592;28;20230;-88
2023/01/18 08:23:17;;;;;;;;;;;-2.80;99.90;;;;;;4979953;28;19932;-90
2023/01/18 08:28:40;;;;;;;;;;;-2.70;99.90;;;;;;4995972;28;19929;-89
2023/01/18 08:31:38;;;;;;;;;;;-2.70;99.90;;;;;;5009842;28;19925;-89
2023/01/18 08:37:22;;;;;;;;;;;-2.50;99.90;;;;;;4989200;28;20394;-92
2023/01/18 08:40:01;;;;;;;;;;;-2.50;99.90;;;;;;4995718;28;19926;-90
2023/01/18 08:45:44;;;;;;;;;;;-2.40;99.90;;;;;;4982005;28;19926;-89
2023/01/18 08:48:44;;;;;;;;;;;-2.30;99.90;;;;;;4995544;28;19932;-90
2023/01/18 08:51:33;;;;;;;;;;;-2.30;99.90;;;;;;4979053;28;19925;-90
2023/01/18 08:54:01;;;;;;;;;;;-2.20;99.90;;;;;;4994647;28;20261;-90
2023/01/18 08:59:29;;;;;;;;;;;;;;;;;;;;;
2023/01/18 09:02:16;;;;;;;;;;;;;;;;;;;;;
2023/01/18 09:07:54;;;;;;;;;;;-1.90;99.90;;;;;;4983801;28;19976;-89
2023/01/18 09:10:49;;;;;;;;;;;-1.90;99.90;;;;;;4994893;28;20398;-90
2023/01/18 09:13:35;;;;;;;;;;;-0.80;99.90;;;;;;4994839;28;19933;-89
2023/01/18 09:16:45;;;;;;;;;;;-1.80;99.90;;;;;;4994825;28;19932;-89
2023/01/18 09:19:53;;;;;;;;;;;-1.70;99.90;;;;;;4995489;28;20012;-90
2023/01/18 09:22:53;;;;;;;;;;;;;;;;;;;;;
2023/01/18 09:25:21;;;;;;;;;;;-1.60;99.90;;;;;;5008335;28;20389;-90
2023/01/18 09:28:11;;;;;;;;;;;-1.00;99.90;;;;;;4978763;28;20037;-88
2023/01/18 09:30:42;;;;;;;;;;;2.00;99.90;;;;;;4994527;28;20016;-90
2023/01/18 09:33:43;;;;;;;;;;;;;;;;;;;;;
2023/01/18 09:36:38;;;;;;;;;;;0.10;99.90;;;;;;4994912;28;19925;-89
2023/01/18 09:39:46;;;;;;;;;;;;;;;;;;;;;
2023/01/18 09:42:38;;;;;;;;;;;1.90;99.90;;;;;;5009758;28;19934;-89
2023/01/18 09:45:27;;;;;;;;;;;1.90;99.90;;;;;;4994318;28;20021;-89
2023/01/18 09:48:02;;;;;;;;;;;-0.60;99.90;;;;;;4994291;28;20336;-90
2023/01/18 09:53:50;;;;;;;;;;;-0.90;99.90;;;;;;4981304;28;20037;-89
2023/01/18 09:56:48;;;;;;;;;;;-0.90;99.90;;;;;;4993459;28;20413;-90
2023/01/18 09:59:33;;;;;;;;;;;-0.90;99.90;;;;;;4976462;28;19949;-90
2023/01/18 10:05:29;;;;;;;;;;;-2.20;99.90;;;;;;4985844;28;20008;-88
2023/01/18 10:08:21;;;;;;;;;;;1.90;99.90;;;;;;4994324;28;19934;-87
2023/01/18 10:10:53;;;;;;;;;;;0.60;99.90;;;;;;4992492;28;19926;-90
2023/01/18 10:14:02;;;;;;;;;;;0.00;99.90;;;;;;4994540;28;20326;-91
2023/01/18 10:16:55;;;;;;;;;;;-0.10;99.90;;;;;;5010256;28;20262;-89
2023/01/18 10:19:54;;;;;;;;;;;;;;;;;;;;;
2023/01/18 10:22:59;;;;;;;;;;;;;;;;;;;;;
2023/01/18 10:26:01;;;;;;;;;;;-1.90;99.90;;;;;;4986702;28;19936;-91
2023/01/18 10:29:11;;;;;;;;;;;-0.80;99.90;;;;;;4994253;28;20310;-87
2023/01/18 10:31:56;;;;;;;;;;;-0.20;99.90;;;;;;4999096;28;19953;-90
2023/01/18 10:34:28;;;;;;;;;;;0.60;99.90;;;;;;5001241;28;19909;-91
2023/01/18 10:37:16;;;;;;;;;;;-0.50;99.90;;;;;;5017819;28;19929;-91
2023/01/18 10:39:56;;;;;;;;;;;0.20;99.90;;;;;;5032839;28;19909;-90
2023/01/18 10:42:39;;;;;;;;;;;0.00;99.90;;;;;;5016786;28;21294;-88
2023/01/18 10:45:20;;;;;;;;;;;0.40;99.90;;;;;;5012872;28;19910;-89
2023/01/18 10:48:08;;;;;;;;;;;0.60;99.90;;;;;;5011057;28;19926;-88
2023/01/18 10:51:16;;;;;;;;;;;0.40;99.90;;;;;;5003735;28;19933;-89
2023/01/18 10:53:45;;;;;;;;;;;-1.00;99.90;;;;;;5004254;28;19930;-89
2023/01/18 10:56:20;;;;;;;;;;;0.40;99.90;;;;;;4978767;28;19933;-88
2023/01/18 10:58:56;;;;;;;;;;;2.00;99.90;;;;;;4993045;28;20429;-88
2023/01/18 11:01:50;;;;;;;;;;;-0.80;99.90;;;;;;4993966;28;19929;-88
2023/01/18 11:04:44;;;;;;;;;;;-0.70;99.90;;;;;;4977094;28;19972;-88
2023/01/18 11:07:17;;;;;;;;;;;0.70;99.90;;;;;;4985057;28;20401;-88
2023/01/18 11:09:58;;;;;;;;;;;0.80;99.90;;;;;;4993777;28;20021;-89
2023/01/18 11:16:19;;;;;;;;;;;2.60;99.90;;;;;;4989358;28;19926;-88
2023/01/18 11:19:14;;;;;;;;;;;1.40;99.90;;;;;;4992683;28;19930;-86
2023/01/18 11:21:44;;;;;;;;;;;1.10;99.90;;;;;;4989589;28;19926;-86
2023/01/18 11:24:23;;;;;;;;;;;2.80;99.90;;;;;;4994696;28;19925;-88
2023/01/18 11:27:09;;;;;;;;;;;1.20;99.90;;;;;;4994744;28;19993;-88
2023/01/18 11:30:04;;;;;;;;;;;1.50;99.90;;;;;;4996188;28;19930;-89
2023/01/18 11:32:51;;;;;;;;;;;1.60;99.90;;;;;;4996810;28;20068;-90
2023/01/18 11:38:28;;;;;;;;;;;2.60;99.90;;;;;;4983437;28;20392;-90
2023/01/18 11:41:19;;;;;;;;;;;3.40;99.90;;;;;;4997289;28;19988;-93
2023/01/18 11:44:12;;;;;;;;;;;1.50;99.90;;;;;;4996532;28;19936;-90
2023/01/18 11:46:47;;;;;;;;;;;2.00;99.90;;;;;;4996794;28;19925;-91
2023/01/18 11:49:35;;;;;;;;;;;1.70;99.90;;;;;;4996332;28;19980;-92
2023/01/18 11:52:45;;;;;;;;;;;1.60;99.90;;;;;;4979605;28;20282;-87
2023/01/18 11:55:13;;;;;;;;;;;1.70;99.90;;;;;;4992074;28;20020;-88
2023/01/18 11:57:41;;;;;;;;;;;1.10;99.90;;;;;;4995419;28;19932;-89
2023/01/18 12:00:14;;;;;;;;;;;1.90;99.90;;;;;;4996663;28;19952;-88
2023/01/18 12:03:15;;;;;;;;;;;1.80;99.90;;;;;;4996257;28;20243;-89
2023/01/18 12:05:48;;;;;;;;;;;0.40;99.90;;;;;;4984890;28;19926;-87
2023/01/18 12:08:49;;;;;;;;;;;2.20;99.90;;;;;;4995788;28;20096;-88
2023/01/18 12:11:27;;;;;;;;;;;1.90;99.90;;;;;;4996484;28;20021;-88
2023/01/18 12:14:12;;;;;;;;;;;;;;;;;;;;;
2023/01/18 12:17:09;;;;;;;;;;;2.00;99.90;;;;;;4995429;28;19926;-90
2023/01/18 12:19:57;;;;;;;;;;;2.30;99.90;;;;;;4995748;28;20009;-91
2023/01/18 12:23:04;;;;;;;;;;;1.00;99.90;;;;;;4995525;28;19926;-90
2023/01/18 12:26:07;;;;;;;;;;;2.60;99.90;;;;;;4994814;28;19930;-88
2023/01/18 12:28:49;;;;;;;;;;;;;;;;;;;;;
2023/01/18 12:31:43;;;;;;;;;;;2.40;99.90;;;;;;4996144;28;20326;-91
2023/01/18 12:37:31;;;;;;;;;;;2.50;99.90;;;;;;4986272;28;20021;-87
2023/01/18 12:40:25;;;;;;;;;;;2.30;99.90;;;;;;4979023;28;20245;-88
2023/01/18 12:46:12;;;;;;;;;;;2.30;99.90;;;;;;4994911;28;19925;-89
2023/01/18 12:48:54;;;;;;;;;;;2.40;99.90;;;;;;4978945;28;20021;-88
2023/01/18 12:51:22;;;;;;;;;;;2.30;99.90;;;;;;4995010;28;19933;-89
2023/01/18 12:54:39;;;;;;;;;;;;;;;;;;;;;
2023/01/18 12:57:39;;;;;;;;;;;2.80;99.90;;;;;;4994808;28;19926;-89
2023/01/18 13:00:34;;;;;;;;;;;2.60;99.90;;;;;;4994223;28;19980;-88
2023/01/18 13:03:10;;;;;;;;;;;2.10;99.90;;;;;;4992017;28;19999;-89
2023/01/18 13:05:59;;;;;;;;;;;2.60;99.90;;;;;;4992875;28;19933;-89
2023/01/18 13:08:44;;;;;;;;;;;2.60;99.90;;;;;;4978796;28;19926;-89
2023/01/18 13:11:42;;;;;;;;;;;;;;;;;;;;;
2023/01/18 13:14:45;;;;;;;;;;;2.70;99.90;;;;;;4995358;28;19976;-90
2023/01/18 13:17:49;;;;;;;;;;;2.70;99.90;;;;;;4985848;28;19926;-89
2023/01/18 13:20:44;;;;;;;;;;;2.90;99.90;;;;;;4986733;28;19929;-88
2023/01/18 13:23:24;;;;;;;;;;;1.50;99.90;;;;;;4978248;28;19926;-88
2023/01/18 13:25:56;;;;;;;;;;;2.70;99.90;;;;;;4995102;28;19925;-89
2023/01/18 13:28:50;;;;;;;;;;;3.20;99.90;;;;;;4993478;28;19949;-87
2023/01/18 13:31:29;;;;;;;;;;;2.40;99.90;;;;;;4994415;28;20416;-88
2023/01/18 13:34:12;;;;;;;;;;;;;;;;;;;;;
2023/01/18 13:37:02;;;;;;;;;;;2.10;99.90;;;;;;4993696;28;19926;-88
2023/01/18 13:39:52;;;;;;;;;;;2.60;99.90;;;;;;4994637;28;19926;-89
2023/01/18 13:42:38;;;;;;;;;;;2.80;99.90;;;;;;4994298;28;19941;-88
2023/01/18 13:54:37;;;;;;;;;;;2.70;99.90;;;;;;4918246;29;20006;-89
2023/01/18 13:57:29;;;;;;;;;;;2.70;99.90;;;;;;4920100;29;20302;-89
2023/01/18 14:02:57;;;;;;;;;;;;;;;;;;;;;
2023/01/18 14:05:43;;;;;;;;;;;4.10;99.90;;;;;;4994572;28;19984;-89
2023/01/18 14:08:29;;;;;;;;;;;2.60;99.90;;;;;;4978628;28;20282;-89
2023/01/18 14:11:00;;;;;;;;;;;2.70;99.90;;;;;;4994027;28;19976;-90
2023/01/18 14:13:44;;;;;;;;;;;2.70;99.90;;;;;;4993862;28;19969;-88
2023/01/18 14:16:41;;;;;;;;;;;2.50;99.90;;;;;;4993626;28;20021;-89
2023/01/18 14:19:31;;;;;;;;;;;2.40;99.90;;;;;;4989839;28;19930;-88
2023/01/18 14:22:20;;;;;;;;;;;2.40;99.90;;;;;;4993281;28;19926;-88
2023/01/18 14:25:20;;;;;;;;;;;2.40;99.90;;;;;;4993520;28;19972;-91
2023/01/18 14:28:18;;;;;;;;;;;2.40;99.90;;;;;;4993900;28;20285;-91
2023/01/18 14:31:03;;;;;;;;;;;1.00;99.90;;;;;;4985426;28;20036;-89
2023/01/18 14:33:50;;;;;;;;;;;1.70;99.90;;;;;;4993744;28;19976;-89
2023/01/18 14:36:28;;;;;;;;;;;2.40;99.90;;;;;;4993118;28;19926;-88
2023/01/18 14:39:22;;;;;;;;;;;1.40;99.90;;;;;;4993226;28;19930;-89
2023/01/18 14:42:23;;;;;;;;;;;2.40;99.90;;;;;;4994277;28;19926;-89
2023/01/18 14:45:03;;;;;;;;;;;2.50;99.90;;;;;;4993608;28;19925;-89
2023/01/18 14:47:46;;;;;;;;;;;2.10;99.90;;;;;;4993754;28;19973;-89
2023/01/18 14:50:57;;;;;;;;;;;1.60;99.90;;;;;;4994189;28;19926;-88
2023/01/18 14:53:49;;;;;;;;;;;2.10;99.90;;;;;;4998517;28;19926;-93
2023/01/18 14:56:27;;;;;;;;;;;2.40;99.90;;;;;;5000976;28;19932;-90
2023/01/18 14:59:02;;;;;;;;;;;2.90;99.90;;;;;;5017384;28;19924;-93
2023/01/18 15:01:56;;;;;;;;;;;2.70;99.90;;;;;;5018837;28;19934;-90
2023/01/18 15:04:47;;;;;;;;;;;;;;;;;;;;;
2023/01/18 15:07:30;;;;;;;;;;;3.50;99.90;;;;;;5020690;28;19925;-92
2023/01/18 15:15:55;;;;;;;;;;;2.60;99.90;;;;;;5000883;28;19933;-88
2023/01/18 15:18:27;;;;;;;;;;;3.20;99.90;;;;;;5012855;28;20394;-90
2023/01/18 15:23:57;;;;;;;;;;;1.90;99.90;;;;;;4997339;28;19926;-90
2023/01/18 15:26:39;;;;;;;;;;;2.10;99.90;;;;;;4997019;28;19926;-88
2023/01/18 15:29:27;;;;;;;;;;;2.80;99.90;;;;;;5010802;28;20046;-88
2023/01/18 15:32:28;;;;;;;;;;;2.60;99.90;;;;;;4996556;28;20378;-88
2023/01/18 15:34:55;;;;;;;;;;;1.80;99.90;;;;;;4985086;28;19936;-89
2023/01/18 15:37:45;;;;;;;;;;;3.70;99.90;;;;;;4995866;28;20033;-89
2023/01/18 15:40:23;;;;;;;;;;;2.80;99.90;;;;;;4995861;28;19932;-90
2023/01/18 15:43:13;;;;;;;;;;;;;;;;;;;;;
2023/01/18 15:45:51;;;;;;;;;;;2.60;99.90;;;;;;4997430;28;20033;-89
2023/01/18 15:48:30;;;;;;;;;;;;;;;;;;;;;
2023/01/18 15:51:23;;;;;;;;;;;;;;;;;;;;;
2023/01/18 15:54:00;;;;;;;;;;;2.60;99.90;;;;;;4996195;28;19926;-89
2023/01/18 15:59:30;;;;;;;;;;;2.70;99.90;;;;;;4981845;28;19926;-88
2023/01/18 16:02:22;;;;;;;;;;;4.20;99.90;;;;;;4996025;28;19933;-91
2023/01/18 16:05:06;;;;;;;;;;;2.50;99.90;;;;;;4994729;28;19925;-88
2023/01/18 16:07:54;;;;;;;;;;;1.80;99.90;;;;;;4996189;28;19926;-90
2023/01/18 16:10:42;;;;;;;;;;;;;;;;;;;;;
2023/01/18 16:13:47;;;;;;;;;;;2.70;99.90;;;;;;4995550;28;19932;-87
2023/01/18 16:16:43;;;;;;;;;;;;;;;;;;;;;
2023/01/18 16:19:15;;;;;;;;;;;2.60;99.90;;;;;;4995432;28;19932;-90
2023/01/18 16:22:10;;;;;;;;;;;2.40;99.90;;;;;;4980766;28;19930;-91
2023/01/18 16:24:35;;;;;;;;;;;2.30;99.90;;;;;;4995273;28;19953;-89
2023/01/18 16:27:32;;;;;;;;;;;2.20;99.90;;;;;;4995805;28;19932;-89
2023/01/18 16:30:04;;;;;;;;;;;2.30;99.90;;;;;;4995904;28;19988;-88
2023/01/18 16:32:52;;;;;;;;;;;2.20;99.90;;;;;;4995616;28;19983;-89
2023/01/18 16:35:33;;;;;;;;;;;2.20;99.90;;;;;;4992219;28;19933;-92
2023/01/18 16:41:15;;;;;;;;;;;;;;;;;;;;;
2023/01/18 16:43:46;;;;;;;;;;;2.30;99.90;;;;;;4995434;28;19929;-92
2023/01/18 16:46:16;;;;;;;;;;;1.00;99.90;;;;;;4994877;28;19926;-90
2023/01/18 16:48:50;;;;;;;;;;;3.80;99.90;;;;;;4995215;28;20032;-91
2023/01/18 16:51:32;;;;;;;;;;;3.50;99.90;;;;;;4994910;28;19992;-93
2023/01/18 16:54:15;;;;;;;;;;;2.20;99.90;;;;;;4995672;28;20317;-93
2023/01/18 16:56:49;;;;;;;;;;;2.60;99.90;;;;;;5012185;28;20381;-89
2023/01/18 16:59:21;;;;;;;;;;;1.80;99.90;;;;;;4996034;28;19984;-91
2023/01/18 17:01:54;;;;;;;;;;;2.00;99.90;;;;;;4995791;28;19926;-90
2023/01/18 17:04:25;;;;;;;;;;;1.70;99.90;;;;;;4995467;28;19925;-88
2023/01/18 17:06:53;;;;;;;;;;;0.40;99.90;;;;;;4995827;28;20247;-88
2023/01/18 17:09:22;;;;;;;;;;;1.80;99.90;;;;;;4995574;28;20366;-87
2023/01/18 17:11:53;;;;;;;;;;;1.90;99.90;;;;;;4994396;28;19926;-88
2023/01/18 17:14:28;;;;;;;;;;;1.70;99.90;;;;;;4994800;28;20373;-89
2023/01/18 17:17:04;;;;;;;;;;;2.40;99.90;;;;;;4994931;28;20081;-90
2023/01/18 17:19:40;;;;;;;;;;;1.70;99.90;;;;;;4995366;28;19933;-92
2023/01/18 17:22:08;;;;;;;;;;;0.60;99.90;;;;;;4995330;28;20289;-87
2023/01/18 17:24:34;;;;;;;;;;;3.10;99.90;;;;;;4993827;28;19925;-88
2023/01/18 17:27:02;;;;;;;;;;;3.70;99.90;;;;;;4995179;28;19933;-90
2023/01/18 17:29:28;;;;;;;;;;;3.80;99.90;;;;;;4994510;28;19925;-91
2023/01/18 17:31:56;;;;;;;;;;;1.70;99.90;;;;;;4994896;28;19926;-89
2023/01/18 17:34:23;;;;;;;;;;;1.90;99.90;;;;;;4995308;28;19977;-92
2023/01/18 17:36:52;;;;;;;;;;;3.60;99.90;;;;;;4994389;28;20024;-90
2023/01/18 17:39:21;;;;;;;;;;;2.50;99.90;;;;;;4994349;28;20009;-89
2023/01/18 17:41:56;;;;;;;;;;;0.80;99.90;;;;;;4994630;28;19933;-90
2023/01/18 17:44:23;;;;;;;;;;;0.90;99.90;;;;;;4977876;28;19941;-90
2023/01/18 17:46:48;;;;;;;;;;;1.90;99.90;;;;;;4994762;28;19925;-90
2023/01/18 17:49:16;;;;;;;;;;;3.10;99.90;;;;;;4995429;28;20330;-90
2023/01/18 17:51:44;;;;;;;;;;;2.10;99.90;;;;;;5001474;28;19926;-91
2023/01/18 17:54:12;;;;;;;;;;;3.30;99.90;;;;;;4983667;28;19926;-89
2023/01/18 17:56:38;;;;;;;;;;;3.90;99.90;;;;;;4994533;28;20294;-91
2023/01/18 17:59:09;;;;;;;;;;;2.00;99.90;;;;;;4977721;28;19929;-91
2023/01/18 18:01:40;;;;;;;;;;;2.90;99.90;;;;;;4995316;28;19929;-89
2023/01/18 18:04:08;;;;;;;;;;;2.40;99.90;;;;;;4995015;28;19925;-89
2023/01/18 18:06:57;;;;;;;;;;;1.30;99.90;;;;;;4994597;28;20279;-91
2023/01/18 18:10:04;;;;;;;;;;;2.00;99.90;;;;;;4977950;28;19926;-91
2023/01/18 18:12:46;;;;;;;;;;;;;;;;;;;;;
2023/01/18 18:15:22;;;;;;;;;;;1.60;99.90;;;;;;4994242;28;19932;-93
2023/01/18 18:17:59;;;;;;;;;;;2.20;99.90;;;;;;4994098;28;19930;-90
2023/01/18 18:20:36;;;;;;;;;;;2.10;99.90;;;;;;4993802;28;19965;-93
2023/01/18 18:23:12;;;;;;;;;;;3.20;99.90;;;;;;4992537;28;19984;-90
2023/01/18 18:26:06;;;;;;;;;;;2.50;99.90;;;;;;4994873;28;20339;-90
2023/01/18 18:28:54;;;;;;;;;;;2.50;99.90;;;;;;4977680;28;20294;-90
2023/01/18 18:31:27;;;;;;;;;;;2.30;99.90;;;;;;4994865;28;19947;-91
2023/01/18 18:34:15;;;;;;;;;;;;;;;;;;;;;
2023/01/18 18:39:48;;;;;;;;;;;;;;;;;;;;;
2023/01/18 18:42:45;;;;;;;;;;;3.40;99.90;;;;;;4994129;28;19926;-91
2023/01/18 18:45:15;;;;;;;;;;;0.70;99.90;;;;;;4993178;28;19973;-89
2023/01/18 18:51:01;;;;;;;;;;;1.00;99.90;;;;;;4985510;28;20294;-91
2023/01/18 18:53:40;;;;;;;;;;;;;;;;;;;;;
2023/01/18 18:56:21;;;;;;;;;;;1.70;99.90;;;;;;4994260;28;20346;-92
2023/01/18 18:58:58;;;;;;;;;;;1.80;99.90;;;;;;4993926;28;19925;-92
2023/01/18 19:01:45;;;;;;;;;;;1.10;99.90;;;;;;5007351;28;20297;-89
2023/01/18 19:04:33;;;;;;;;;;;1.80;99.90;;;;;;4993780;28;19926;-92
2023/01/18 19:07:04;;;;;;;;;;;1.00;99.90;;;;;;5017360;28;19949;-91
2023/01/18 19:09:53;;;;;;;;;;;2.70;99.90;;;;;;5017943;28;19921;-93
2023/01/18 19:12:31;;;;;;;;;;;1.80;99.90;;;;;;5017549;28;19917;-93
2023/01/18 19:15:16;;;;;;;;;;;2.00;99.90;;;;;;5017620;28;19965;-92
2023/01/18 19:17:44;;;;;;;;;;;1.60;99.90;;;;;;5017598;28;20021;-91
2023/01/18 19:20:18;;;;;;;;;;;1.60;99.90;;;;;;5017779;28;19910;-91
2023/01/18 19:22:52;;;;;;;;;;;3.00;99.90;;;;;;5017417;28;19922;-92
2023/01/18 19:25:26;;;;;;;;;;;0.40;99.90;;;;;;5015568;28;19956;-88
2023/01/18 19:28:22;;;;;;;;;;;1.90;99.90;;;;;;4989812;28;19926;-92